Time,TemperatureF,DewpointF,PressureIn,WindDirection,WindDirectionDegrees,WindSpeedMPH,WindSpeedGustMPH,Humidity,HourlyPrecipIn,Conditions,Clouds,dailyrainin,SoftwareType,DateUTC
2013-03-02 00:01:00,28.9,22.9,29.82,NE,45,6.3,-999.0,78,-99.99,,,0.00,Acu-Link.com,2013-03-02 05:01:00,
2013-03-02 00:16:00,28.8,22.8,29.82,NNE,22,11.9,-999.0,78,-99.99,,,0.00,Acu-Link.com,2013-03-02 05:16:00,
2013-03-02 00:31:00,28.6,22.6,29.82,NE,45,6.3,-999.0,78,-99.99,,,0.00,Acu-Link.com,2013-03-02 05:31:00,
2013-03-02 00:46:00,28.4,22.7,29.83,ENE,67,4.7,-999.0,79,-99.99,,,0.00,Acu-Link.com,2013-03-02 05:46:00,
2013-03-02 01:02:00,28.2,22.2,29.82,NE,45,7.3,-999.0,78,-99.99,,,0.00,Acu-Link.com,2013-03-02 06:02:00,
2013-03-02 01:17:00,28.0,22.0,29.82,NNE,22,7.3,-999.0,78,-99.99,,,0.00,Acu-Link.com,2013-03-02 06:17:00,
2013-03-02 01:32:00,28.0,22.0,29.82,NNE,22,5.8,-999.0,78,-99.99,,,0.00,Acu-Link.com,2013-03-02 06:32:00,
2013-03-02 01:47:00,27.9,21.9,29.82,NE,45,3.7,-999.0,78,-99.99,,,0.00,Acu-Link.com,2013-03-02 06:47:00,
2013-03-02 02:02:00,27.7,21.8,29.83,NW,315,8.3,-999.0,78,-99.99,,,0.00,Acu-Link.com,2013-03-02 07:02:00,
2013-03-02 02:18:00,27.5,21.6,29.82,NNW,337,6.3,-999.0,78,-99.99,,,0.00,Acu-Link.com,2013-03-02 07:18:00,
2013-03-02 02:33:00,27.3,21.7,29.82,NE,45,7.8,-999.0,79,-99.99,,,0.00,Acu-Link.com,2013-03-02 07:33:00,
2013-03-02 02:48:00,27.3,21.7,29.82,NW,315,4.7,-999.0,79,-99.99,,,0.00,Acu-Link.com,2013-03-02 07:48:00,
2013-03-02 03:03:00,27.1,21.5,29.82,NE,45,9.4,-999.0,79,-99.99,,,0.00,Acu-Link.com,2013-03-02 08:03:00,
2013-03-02 03:18:00,27.1,21.5,29.81,North,0,4.7,-999.0,79,-99.99,,,0.00,Acu-Link.com,2013-03-02 08:18:00,
2013-03-02 03:33:00,27.1,20.9,29.81,NE,45,11.9,-999.0,77,-99.99,,,0.00,Acu-Link.com,2013-03-02 08:33:00,
2013-03-02 03:48:00,27.0,20.8,29.80,NNE,22,11.4,-999.0,77,-99.99,,,0.00,Acu-Link.com,2013-03-02 08:48:00,
2013-03-02 04:18:00,26.8,20.3,29.81,North,0,8.9,-999.0,76,-99.99,,,0.00,Acu-Link.com,2013-03-02 09:18:00,
2013-03-02 04:34:00,26.6,21.0,29.81,North,0,5.8,-999.0,79,-99.99,,,0.00,Acu-Link.com,2013-03-02 09:34:00,
2013-03-02 04:49:00,25.9,19.7,29.81,NNE,22,5.8,-999.0,77,-99.99,,,0.00,Acu-Link.com,2013-03-02 09:49:00,
2013-03-02 05:04:00,25.5,19.6,29.82,NNE,22,5.8,-999.0,78,-99.99,,,0.00,Acu-Link.com,2013-03-02 10:04:00,
2013-03-02 05:19:00,25.3,19.7,29.83,NNE,22,9.4,-999.0,79,-99.99,,,0.00,Acu-Link.com,2013-03-02 10:19:00,
2013-03-02 05:34:00,25.0,19.1,29.82,NNW,337,6.3,-999.0,78,-99.99,,,0.00,Acu-Link.com,2013-03-02 10:34:00,
2013-03-02 05:50:00,25.0,19.1,29.82,ENE,67,7.8,-999.0,78,-99.99,,,0.00,Acu-Link.com,2013-03-02 10:50:00,
2013-03-02 06:05:00,24.8,18.9,29.81,NNW,337,7.3,-999.0,78,-99.99,,,0.00,Acu-Link.com,2013-03-02 11:05:00,
2013-03-02 06:20:00,24.8,18.9,29.82,NNE,22,7.8,-999.0,78,-99.99,,,0.00,Acu-Link.com,2013-03-02 11:20:00,
2013-03-02 06:35:00,24.8,18.9,29.82,NNW,337,9.9,-999.0,78,-99.99,,,0.00,Acu-Link.com,2013-03-02 11:35:00,
2013-03-02 06:50:00,24.8,18.9,29.82,NNW,337,7.8,-999.0,78,-99.99,,,0.00,Acu-Link.com,2013-03-02 11:50:00,
2013-03-02 07:05:00,25.0,18.8,29.83,NE,45,7.8,-999.0,77,-99.99,,,0.00,Acu-Link.com,2013-03-02 12:05:00,
2013-03-02 07:20:00,25.0,17.6,29.82,NE,45,3.2,-999.0,73,-99.99,,,0.00,Acu-Link.com,2013-03-02 12:20:00,
2013-03-02 07:35:00,25.0,17.9,29.83,NNE,22,7.3,-999.0,74,-99.99,,,0.00,Acu-Link.com,2013-03-02 12:35:00,
2013-03-02 07:51:00,25.2,18.4,29.83,North,0,8.9,-999.0,75,-99.99,,,0.00,Acu-Link.com,2013-03-02 12:51:00,
2013-03-02 08:06:00,25.3,18.5,29.84,NE,45,7.3,-999.0,75,-99.99,,,0.00,Acu-Link.com,2013-03-02 13:06:00,
2013-03-02 08:21:00,25.3,18.5,29.84,NNE,22,8.3,-999.0,75,-99.99,,,0.00,Acu-Link.com,2013-03-02 13:21:00,
2013-03-02 08:36:00,25.5,18.7,29.84,NNW,337,5.8,-999.0,75,-99.99,,,0.00,Acu-Link.com,2013-03-02 13:36:00,
2013-03-02 08:51:00,25.7,18.9,29.84,NNW,337,7.3,-999.0,75,-99.99,,,0.00,Acu-Link.com,2013-03-02 13:51:00,
2013-03-02 09:06:00,26.1,19.0,29.85,NNE,22,8.9,-999.0,74,-99.99,,,0.00,Acu-Link.com,2013-03-02 14:06:00,
2013-03-02 09:21:00,26.1,19.0,29.85,North,0,8.9,-999.0,74,-99.99,,,0.00,Acu-Link.com,2013-03-02 14:21:00,
2013-03-02 09:36:00,26.4,19.3,29.85,NNE,22,8.9,-999.0,74,-99.99,,,0.00,Acu-Link.com,2013-03-02 14:36:00,
2013-03-02 09:51:00,26.6,19.5,29.85,North,0,10.4,-999.0,74,-99.99,,,0.00,Acu-Link.com,2013-03-02 14:51:00,
2013-03-02 10:06:00,26.6,19.5,29.85,NW,315,8.9,-999.0,74,-99.99,,,0.00,Acu-Link.com,2013-03-02 15:06:00,
2013-03-02 10:21:00,26.8,18.7,29.84,NNE,22,10.9,-999.0,71,-99.99,,,0.00,Acu-Link.com,2013-03-02 15:21:00,
2013-03-02 10:36:00,27.1,18.6,29.85,NE,45,11.9,-999.0,70,-99.99,,,0.00,Acu-Link.com,2013-03-02 15:36:00,
2013-03-02 10:51:00,27.3,18.8,29.85,NW,315,6.3,-999.0,70,-99.99,,,0.00,Acu-Link.com,2013-03-02 15:51:00,
2013-03-02 11:06:00,27.5,19.4,29.85,NE,45,7.8,-999.0,71,-99.99,,,0.00,Acu-Link.com,2013-03-02 16:06:00,
2013-03-02 11:21:00,27.0,18.9,29.85,NNE,22,7.8,-999.0,71,-99.99,,,0.00,Acu-Link.com,2013-03-02 16:21:00,
2013-03-02 11:36:00,27.3,19.5,29.85,NNE,22,7.3,-999.0,72,-99.99,,,0.00,Acu-Link.com,2013-03-02 16:36:00,
2013-03-02 11:51:00,27.5,19.7,29.85,NNW,337,3.7,-999.0,72,-99.99,,,0.00,Acu-Link.com,2013-03-02 16:51:00,
2013-03-02 12:06:00,27.9,19.1,29.85,NNE,22,7.3,-999.0,69,-99.99,,,0.00,Acu-Link.com,2013-03-02 17:06:00,
2013-03-02 12:22:00,28.2,19.0,29.85,NNE,22,5.8,-999.0,68,-99.99,,,0.00,Acu-Link.com,2013-03-02 17:22:00,
2013-03-02 12:37:00,28.2,19.4,29.84,ENE,67,6.8,-999.0,69,-99.99,,,0.00,Acu-Link.com,2013-03-02 17:37:00,
2013-03-02 12:52:00,28.0,19.2,29.84,NNW,337,12.5,-999.0,69,-99.99,,,0.00,Acu-Link.com,2013-03-02 17:52:00,
2013-03-02 13:07:00,28.2,19.4,29.84,NW,315,7.3,-999.0,69,-99.99,,,0.00,Acu-Link.com,2013-03-02 18:07:00,
2013-03-02 13:22:00,28.0,19.2,29.84,NW,315,9.4,-999.0,69,-99.99,,,0.00,Acu-Link.com,2013-03-02 18:22:00,
2013-03-02 13:37:00,28.6,19.4,29.83,NNW,337,8.9,-999.0,68,-99.99,,,0.00,Acu-Link.com,2013-03-02 18:37:00,
2013-03-02 13:53:00,28.4,19.2,29.83,NNW,337,10.9,-999.0,68,-99.99,,,0.00,Acu-Link.com,2013-03-02 18:53:00,
2013-03-02 14:08:00,28.8,19.2,29.82,NNW,337,10.4,-999.0,67,-99.99,,,0.00,Acu-Link.com,2013-03-02 19:08:00,
2013-03-02 14:23:00,28.8,19.6,29.82,NNW,337,10.9,-999.0,68,-99.99,,,0.00,Acu-Link.com,2013-03-02 19:23:00,
2013-03-02 14:38:00,28.4,19.9,29.82,NW,315,11.9,-999.0,70,-99.99,,,0.00,Acu-Link.com,2013-03-02 19:38:00,
2013-03-02 14:53:00,28.8,20.6,29.82,NNW,337,7.8,-999.0,71,-99.99,,,0.00,Acu-Link.com,2013-03-02 19:53:00,
2013-03-02 15:08:00,28.8,20.6,29.82,NNW,337,7.3,-999.0,71,-99.99,,,0.00,Acu-Link.com,2013-03-02 20:08:00,
2013-03-02 15:23:00,28.9,20.4,29.81,NNW,337,11.9,-999.0,70,-99.99,,,0.00,Acu-Link.com,2013-03-02 20:23:00,
2013-03-02 15:38:00,28.9,20.4,29.81,NNW,337,13.0,-999.0,70,-99.99,,,0.00,Acu-Link.com,2013-03-02 20:38:00,
2013-03-02 15:54:00,29.1,19.9,29.82,North,0,6.8,-999.0,68,-99.99,,,0.00,Acu-Link.com,2013-03-02 20:54:00,
2013-03-02 16:09:00,29.5,19.9,29.81,NW,315,9.4,-999.0,67,-99.99,,,0.00,Acu-Link.com,2013-03-02 21:09:00,
2013-03-02 16:24:00,29.1,20.2,29.82,WNW,292,12.5,-999.0,69,-99.99,,,0.00,Acu-Link.com,2013-03-02 21:24:00,
2013-03-02 16:39:00,29.3,19.7,29.82,NNW,337,13.0,-999.0,67,-99.99,,,0.00,Acu-Link.com,2013-03-02 21:39:00,
2013-03-02 16:54:00,29.8,19.9,29.82,NNW,337,8.9,-999.0,66,-99.99,,,0.00,Acu-Link.com,2013-03-02 21:54:00,
2013-03-02 17:09:00,29.8,19.5,29.82,NW,315,13.5,-999.0,65,-99.99,,,0.00,Acu-Link.com,2013-03-02 22:09:00,
2013-03-02 17:24:00,29.8,20.2,29.82,NW,315,7.3,-999.0,67,-99.99,,,0.00,Acu-Link.com,2013-03-02 22:24:00,
2013-03-02 17:39:00,29.7,20.8,29.83,NW,315,6.3,-999.0,69,-99.99,,,0.00,Acu-Link.com,2013-03-02 22:39:00,
2013-03-02 17:54:00,29.3,22.4,29.83,NW,315,11.4,-999.0,75,-99.99,,,0.00,Acu-Link.com,2013-03-02 22:54:00,
2013-03-02 18:09:00,29.3,23.0,29.82,WNW,292,9.4,-999.0,77,-99.99,,,0.00,Acu-Link.com,2013-03-02 23:09:00,
2013-03-02 18:24:00,29.1,23.4,29.83,WNW,292,8.3,-999.0,79,-99.99,,,0.00,Acu-Link.com,2013-03-02 23:24:00,
2013-03-02 18:39:00,28.9,23.2,29.84,WNW,292,10.4,-999.0,79,-99.99,,,0.00,Acu-Link.com,2013-03-02 23:39:00,
2013-03-02 18:55:00,28.9,23.2,29.83,NNW,337,9.9,-999.0,79,-99.99,,,0.00,Acu-Link.com,2013-03-02 23:55:00,
2013-03-02 19:10:00,28.8,22.8,29.83,WNW,292,10.9,-999.0,78,-99.99,,,0.00,Acu-Link.com,2013-03-03 00:10:00,
2013-03-02 19:25:00,28.8,22.8,29.84,WNW,292,7.8,-999.0,78,-99.99,,,0.00,Acu-Link.com,2013-03-03 00:25:00,
2013-03-02 19:40:00,28.8,22.8,29.84,NNW,337,13.5,-999.0,78,-99.99,,,0.00,Acu-Link.com,2013-03-03 00:40:00,
2013-03-02 19:55:00,28.6,22.9,29.84,NNW,337,8.9,-999.0,79,-99.99,,,0.00,Acu-Link.com,2013-03-03 00:55:00,
2013-03-02 20:10:00,28.4,22.7,29.84,NNW,337,9.4,-999.0,79,-99.99,,,0.00,Acu-Link.com,2013-03-03 01:10:00,
2013-03-02 20:25:00,28.4,23.0,29.84,NNW,337,9.9,-999.0,80,-99.99,,,0.00,Acu-Link.com,2013-03-03 01:25:00,
2013-03-02 20:40:00,28.2,22.8,29.84,NNW,337,8.9,-999.0,80,-99.99,,,0.00,Acu-Link.com,2013-03-03 01:40:00,
2013-03-02 20:55:00,28.2,22.8,29.84,NW,315,13.0,-999.0,80,-99.99,,,0.00,Acu-Link.com,2013-03-03 01:55:00,
2013-03-02 21:10:00,28.0,22.6,29.84,NNW,337,7.8,-999.0,80,-99.99,,,0.00,Acu-Link.com,2013-03-03 02:10:00,
2013-03-02 21:25:00,28.0,22.6,29.85,NNW,337,11.4,-999.0,80,-99.99,,,0.00,Acu-Link.com,2013-03-03 02:25:00,
2013-03-02 21:40:00,28.0,23.2,29.85,WNW,292,9.4,-999.0,82,-99.99,,,0.00,Acu-Link.com,2013-03-03 02:40:00,
2013-03-02 21:55:00,27.9,23.4,29.85,NW,315,11.9,-999.0,83,-99.99,,,0.00,Acu-Link.com,2013-03-03 02:55:00,
2013-03-02 22:10:00,27.9,23.4,29.84,NNW,337,8.9,-999.0,83,-99.99,,,0.00,Acu-Link.com,2013-03-03 03:10:00,
2013-03-02 22:25:00,27.7,23.2,29.84,NW,315,10.9,-999.0,83,-99.99,,,0.00,Acu-Link.com,2013-03-03 03:25:00,
2013-03-02 22:40:00,27.7,23.2,29.84,NW,315,15.0,-999.0,83,-99.99,,,0.00,Acu-Link.com,2013-03-03 03:40:00,
2013-03-02 22:55:00,27.5,23.0,29.84,North,0,9.4,-999.0,83,-99.99,,,0.00,Acu-Link.com,2013-03-03 03:55:00,
2013-03-02 23:10:00,27.1,22.9,29.84,NNW,337,14.0,-999.0,84,-99.99,,,0.00,Acu-Link.com,2013-03-03 04:10:00,
2013-03-02 23:25:00,27.1,22.9,29.84,NW,315,8.9,-999.0,84,-99.99,,,0.00,Acu-Link.com,2013-03-03 04:25:00,
2013-03-02 23:40:00,27.0,23.1,29.84,NNW,337,12.5,-999.0,85,-99.99,,,0.00,Acu-Link.com,2013-03-03 04:40:00,
2013-03-02 23:55:00,26.8,22.6,29.85,NNW,337,13.0,-999.0,84,-99.99,,,0.00,Acu-Link.com,2013-03-03 04:55:00,